createdAt,value
2023-04-28T00:02:27.196Z,3.93
2023-04-28T00:07:31.640Z,3.86
2023-04-28T00:12:37.886Z,3.82
2023-04-28T00:17:42.291Z,3.76
2023-04-28T00:22:46.832Z,3.70
2023-04-28T00:27:53.346Z,3.65
2023-04-28T00:32:57.793Z,3.58
2023-04-28T00:38:04.573Z,3.56
2023-04-28T00:43:08.707Z,3.53
2023-04-28T00:48:16.030Z,3.48
2023-04-28T00:53:20.049Z,3.48
2023-04-28T00:58:21.839Z,3.51
2023-04-28T01:03:23.695Z,3.57
2023-04-28T01:08:33.291Z,3.61
2023-04-28T01:13:38.600Z,3.61
2023-04-28T01:18:49.899Z,3.61
2023-04-28T01:23:52.135Z,3.57
2023-04-28T01:28:56.044Z,3.57
2023-04-28T01:34:02.062Z,3.57
2023-04-28T01:39:06.340Z,3.54
2023-04-28T01:44:11.866Z,3.51
2023-04-28T01:49:15.850Z,3.54
2023-04-28T01:54:20.257Z,3.55
2023-04-28T01:59:27.070Z,3.58
2023-04-28T02:04:28.985Z,3.58
2023-04-28T02:09:33.284Z,3.63
2023-04-28T02:14:37.390Z,3.63
2023-04-28T02:19:39.077Z,3.63
2023-04-28T02:24:40.947Z,3.62
2023-04-28T02:29:42.648Z,3.58
2023-04-28T02:34:44.317Z,3.60
2023-04-28T02:39:46.357Z,3.60
2023-04-28T02:44:51.495Z,3.61
2023-04-28T02:49:55.535Z,3.60
2023-04-28T02:55:03.897Z,3.58
2023-04-28T03:00:06.686Z,3.65
2023-04-28T03:05:16.600Z,3.68
2023-04-28T03:10:18.430Z,3.69
2023-04-28T03:15:22.379Z,3.70
2023-04-28T03:20:26.744Z,3.76
2023-04-28T03:25:31.018Z,3.79
2023-04-28T03:30:35.889Z,3.77
2023-04-28T03:35:37.563Z,3.80
2023-04-28T03:40:39.410Z,3.87
2023-04-28T03:45:43.688Z,3.91
2023-04-28T03:50:47.618Z,4.00
2023-04-28T03:55:49.939Z,4.11
2023-04-28T04:00:57.192Z,4.24
2023-04-28T04:06:01.916Z,4.39
2023-04-28T04:11:03.656Z,4.48
2023-04-28T04:16:10.420Z,4.58
2023-04-28T04:21:16.528Z,4.69
2023-04-28T04:26:21.000Z,4.82
2023-04-28T04:31:25.050Z,4.93
2023-04-28T04:36:29.179Z,5.07
2023-04-28T04:41:33.183Z,5.67
2023-04-28T04:47:07.510Z,6.02
2023-04-28T04:52:12.922Z,6.45
2023-04-28T04:57:14.766Z,6.39
2023-04-28T05:02:35.270Z,6.22
2023-04-28T05:07:39.298Z,6.15
2023-04-28T05:12:41.371Z,6.14
2023-04-28T05:17:50.473Z,6.23
2023-04-28T05:22:52.821Z,6.30
2023-04-28T05:27:57.830Z,6.38
2023-04-28T05:33:04.922Z,6.48
2023-04-28T05:38:07.201Z,6.57
2023-04-28T05:43:09.045Z,6.66
2023-04-28T05:48:11.050Z,6.76
2023-04-28T05:53:16.277Z,6.88
2023-04-28T05:58:21.297Z,7.08
2023-04-28T06:03:25.585Z,7.30
2023-04-28T06:08:32.297Z,7.49
2023-04-28T06:13:38.953Z,7.77
2023-04-28T06:18:43.004Z,7.99
2023-04-28T06:23:47.352Z,8.09
2023-04-28T06:28:52.106Z,8.09
2023-04-28T06:33:56.254Z,8.22
2023-04-28T06:39:00.825Z,8.34
2023-04-28T06:44:05.474Z,8.46
2023-04-28T06:49:10.065Z,8.66
2023-04-28T06:54:13.953Z,8.80
2023-04-28T06:59:18.707Z,8.96
2023-04-28T07:04:21.012Z,9.14
2023-04-28T07:09:26.015Z,9.19
2023-04-28T07:14:30.543Z,9.26
2023-04-28T07:19:32.428Z,9.33
2023-04-28T07:24:34.340Z,9.45
2023-04-28T07:29:39.010Z,9.51
2023-04-28T07:34:43.000Z,9.58
2023-04-28T07:39:47.324Z,9.75
2023-04-28T07:44:51.918Z,9.88
2023-04-28T07:49:53.659Z,10.09
2023-04-28T07:54:57.801Z,10.25
2023-04-28T08:00:02.049Z,10.48
2023-04-28T08:05:16.102Z,10.78
2023-04-28T08:10:20.485Z,10.93
2023-04-28T08:15:22.419Z,11.21
2023-04-28T08:20:24.889Z,11.32
2023-04-28T08:25:26.757Z,11.50
2023-04-28T08:30:28.510Z,11.74
2023-04-28T08:35:30.344Z,11.85
2023-04-28T08:40:34.382Z,12.03
2023-04-28T08:45:44.233Z,12.29
2023-04-28T08:50:56.083Z,12.51
2023-04-28T08:55:58.380Z,12.61
2023-04-28T09:01:04.676Z,12.88
2023-04-28T09:06:08.815Z,13.01
2023-04-28T09:11:12.551Z,12.95
2023-04-28T09:16:17.110Z,12.97
2023-04-28T09:21:19.169Z,12.98
2023-04-28T09:26:25.812Z,13.11
2023-04-28T09:31:29.585Z,13.37
2023-04-28T09:36:31.461Z,13.51
2023-04-28T09:41:38.352Z,13.49
2023-04-28T09:46:42.446Z,13.36
2023-04-28T09:51:50.268Z,13.31
2023-04-28T09:56:52.395Z,13.27
2023-04-28T10:02:00.899Z,13.31
2023-04-28T10:07:14.535Z,13.41
2023-04-28T10:12:18.952Z,13.42
2023-04-28T10:17:29.652Z,13.27
2023-04-28T10:22:53.511Z,12.93
2023-04-28T10:27:56.352Z,12.74
2023-04-28T10:33:15.623Z,12.86
2023-04-28T10:38:19.036Z,12.80
2023-04-28T10:43:30.993Z,12.81
2023-04-28T10:48:36.994Z,12.88
2023-04-28T10:53:45.088Z,12.80
2023-04-28T10:58:51.765Z,12.91
2023-04-28T11:04:03.173Z,12.87
2023-04-28T11:09:20.315Z,12.91
2023-04-28T11:14:22.102Z,12.97
2023-04-28T11:19:33.283Z,13.15
2023-04-28T11:24:41.125Z,13.18
2023-04-28T11:29:49.159Z,13.03
2023-04-28T11:34:52.178Z,12.97
2023-04-28T11:39:57.427Z,12.93
2023-04-28T11:44:59.249Z,12.97
2023-04-28T11:50:06.623Z,12.90
2023-04-28T11:55:08.708Z,12.86
2023-04-28T12:00:14.771Z,12.87
2023-04-28T12:05:24.817Z,12.98
2023-04-28T12:10:26.769Z,13.28
2023-04-28T12:15:40.967Z,13.28
2023-04-28T12:20:43.563Z,13.62
2023-04-28T12:25:46.319Z,13.98
2023-04-28T12:30:48.227Z,13.99
2023-04-28T12:35:50.086Z,13.84
2023-04-28T12:40:56.966Z,13.55
2023-04-28T12:46:00.440Z,13.40
2023-04-28T12:51:06.758Z,13.39
2023-04-28T12:56:11.043Z,13.25
2023-04-28T13:01:13.508Z,13.29
2023-04-28T13:06:15.534Z,13.26
2023-04-28T13:11:22.864Z,13.03
2023-04-28T13:16:33.893Z,12.87
2023-04-28T13:21:36.638Z,12.98
2023-04-28T13:26:44.186Z,12.93
2023-04-28T13:31:46.203Z,12.89
2023-04-28T13:36:54.134Z,12.92
2023-04-28T13:41:58.303Z,13.00
2023-04-28T13:47:00.926Z,13.14
2023-04-28T13:52:03.637Z,13.26
2023-04-28T13:57:05.553Z,13.18
2023-04-28T14:02:09.552Z,13.07
2023-04-28T14:07:13.861Z,12.98
2023-04-28T14:12:20.872Z,12.80
2023-04-28T14:17:22.814Z,12.58
2023-04-28T14:22:24.774Z,12.40
2023-04-28T14:27:29.344Z,12.25
2023-04-28T14:32:31.211Z,12.08
2023-04-28T14:37:35.604Z,11.96
2023-04-28T14:42:40.624Z,11.92
2023-04-28T14:47:51.654Z,11.92
2023-04-28T14:52:56.161Z,11.90
2023-04-28T14:58:00.629Z,11.87
2023-04-28T15:03:04.047Z,11.87
2023-04-28T15:08:13.507Z,11.73
2023-04-28T15:13:15.601Z,11.55
2023-04-28T15:18:18.136Z,11.40
2023-04-28T15:23:24.631Z,11.35
2023-04-28T15:28:34.612Z,11.35
2023-04-28T15:33:40.833Z,11.40
2023-04-28T15:38:45.589Z,11.30
2023-04-28T15:43:51.760Z,11.12
2023-04-28T15:48:55.822Z,11.03
2023-04-28T15:53:57.787Z,10.93
2023-04-28T15:59:01.875Z,10.83
2023-04-28T16:04:12.849Z,10.71
2023-04-28T16:09:16.917Z,10.62
2023-04-28T16:14:21.638Z,10.51
2023-04-28T16:19:25.979Z,10.37
2023-04-28T16:24:28.821Z,10.33
2023-04-28T16:29:34.978Z,10.34
2023-04-28T16:34:36.751Z,10.28
2023-04-28T16:39:38.657Z,10.22
2023-04-28T16:44:40.429Z,10.20
2023-04-28T16:49:44.575Z,10.47
2023-04-28T16:54:48.789Z,10.36
2023-04-28T16:59:51.170Z,10.30
2023-04-28T17:04:57.517Z,10.27
2023-04-28T17:10:01.897Z,10.27
2023-04-28T17:15:04.187Z,10.64
2023-04-28T17:20:09.261Z,10.61
2023-04-28T17:25:12.185Z,10.56
2023-04-28T17:30:14.203Z,10.49
2023-04-28T17:35:16.303Z,10.43
2023-04-28T17:40:18.770Z,10.36
2023-04-28T17:45:22.723Z,10.27
2023-04-28T17:50:26.886Z,10.12
2023-04-28T17:55:32.586Z,10.03
2023-04-28T18:00:35.110Z,9.98
2023-04-28T18:05:39.306Z,9.95
2023-04-28T18:10:46.249Z,10.25
2023-04-28T18:15:48.354Z,10.43
2023-04-28T18:20:50.239Z,10.40
2023-04-28T18:25:55.015Z,10.13
2023-04-28T18:30:58.906Z,9.94
2023-04-28T18:36:06.135Z,9.84
2023-04-28T18:41:15.704Z,9.76
2023-04-28T18:46:17.904Z,9.66
2023-04-28T18:51:20.199Z,9.60
2023-04-28T18:56:29.206Z,9.51
2023-04-28T19:01:31.499Z,9.44
2023-04-28T19:06:33.804Z,9.41
2023-04-28T19:11:35.627Z,9.38
2023-04-28T19:16:37.371Z,9.36
2023-04-28T19:21:42.629Z,9.36
2023-04-28T19:26:44.287Z,9.34
2023-04-28T19:31:46.069Z,9.33
2023-04-28T19:36:47.973Z,9.35
2023-04-28T19:41:50.785Z,9.35
2023-04-28T19:46:52.669Z,9.34
2023-04-28T19:51:58.561Z,9.32
2023-04-28T19:57:05.405Z,9.30
2023-04-28T20:02:08.400Z,9.29
2023-04-28T20:07:13.146Z,9.27
2023-04-28T20:12:17.776Z,9.25
2023-04-28T20:17:22.278Z,9.24
2023-04-28T20:22:24.281Z,9.24
2023-04-28T20:27:27.005Z,9.24
2023-04-28T20:32:31.278Z,9.23
2023-04-28T20:37:33.370Z,9.22
2023-04-28T20:42:37.491Z,9.21
2023-04-28T20:47:39.804Z,9.21
2023-04-28T20:52:44.197Z,9.20
2023-04-28T20:57:50.641Z,9.25
2023-04-28T21:02:52.697Z,9.23
2023-04-28T21:07:57.691Z,9.24
2023-04-28T21:12:59.483Z,9.27
2023-04-28T21:18:06.216Z,9.20
2023-04-28T21:23:10.246Z,9.16
2023-04-28T21:28:11.987Z,9.11
2023-04-28T21:33:16.003Z,9.06
2023-04-28T21:38:19.922Z,9.03
2023-04-28T21:43:24.037Z,9.01
2023-04-28T21:48:25.769Z,9.00
2023-04-28T21:53:30.575Z,9.01
2023-04-28T21:58:38.385Z,8.98
2023-04-28T22:03:45.281Z,8.97
2023-04-28T22:08:47.086Z,8.95
2023-04-28T22:13:48.868Z,8.93
2023-04-28T22:18:50.514Z,8.93
2023-04-28T22:23:52.177Z,8.90
2023-04-28T22:29:06.564Z,8.89
2023-04-28T22:34:09.932Z,8.84
2023-04-28T22:39:11.937Z,8.83
2023-04-28T22:44:18.455Z,8.84
2023-04-28T22:49:28.677Z,8.80
2023-04-28T22:54:31.880Z,8.78
2023-04-28T22:59:33.545Z,8.76
2023-04-28T23:04:40.135Z,8.75
2023-04-28T23:09:42.261Z,8.73
2023-04-28T23:14:47.392Z,8.74
2023-04-28T23:19:51.436Z,8.71
2023-04-28T23:24:55.683Z,8.69
2023-04-28T23:30:06.823Z,8.68
2023-04-28T23:35:10.887Z,8.67
2023-04-28T23:40:15.386Z,8.64
2023-04-28T23:45:21.633Z,8.61
2023-04-28T23:50:23.932Z,8.58
2023-04-28T23:55:28.059Z,8.55
